Flight Track Log - Related Links

Times and Time Zones

All times are in EDT time to prevent confusion due to time zone crossing. See the UAL5887 flight status page for this flight to view local times or setup timezone preferences in your user account.

Time Position Orientation Groundspeed Altitude Reporting Facility
EDT Latitude Longitude Course Direction KTS MPH feet Rate Location/Type
Mon 07:05:52 PM 35.1911 -80.9508 186° South 162 186 1,500  Level Atlanta Center
Mon 07:06:59 PM 35.1308 -80.9583 186° South 222 255 3,000 1,791 Climbing Atlanta Center
Mon 07:08:06 PM 35.0931 -81.0281 237° Southwest 270 311 5,500 2,386 Climbing Atlanta Center
Mon 07:08:22 PM 35.0914 -81.0536 265° West 260 299 6,300 2,182 Climbing Atlanta Center
Mon 07:09:01 PM 35.0950 -81.1094 275° West 265 305 7,500 1,500 Climbing Atlanta Center
Mon 07:09:22 PM 35.0997 -81.1397 281° West 270 311 7,800 1,704 Climbing Atlanta Center
Mon 07:10:22 PM 35.1289 -81.2225 293° West 296 341 9,800 1,450 Climbing Atlanta Center
Mon 07:11:22 PM 35.1397 -81.3286 277° West 306 352 10,700 1,150 Climbing Atlanta Center
Mon 07:12:22 PM 35.1442 -81.4456 273° West 341 392 12,100 1,450 Climbing Atlanta Center
Mon 07:13:22 PM 35.1447 -81.5750 270° West 352 405 13,600 1,300 Climbing Atlanta Center
Mon 07:14:22 PM 35.1367 -81.6972 265° West 358 412 14,700 1,150 Climbing Atlanta Center
Mon 07:15:22 PM 35.1244 -81.8219 263° West 364 419 15,900 1,150 Climbing Atlanta Center
Mon 07:16:22 PM 35.1161 -81.9464 265° West 373 429 17,000 1,050 Climbing Atlanta Center
Mon 07:17:22 PM 35.1036 -82.0711 263° West 373 429 18,000 1,350 Climbing Atlanta Center
Mon 07:19:00 PM 35.1927 -82.2672 299° West  Level FlightAware Approximate
Mon 07:20:22 PM 35.1672 -82.4228 299° West 373 429 22,400  Level Atlanta Center
Mon 07:21:22 PM 35.2228 -82.5336 302° West 373 429 23,800 1,425 Climbing Atlanta Center
Mon 07:23:00 PM 35.3812 -82.6468 300° West  Level Estimated
Mon 07:24:22 PM 35.4408 -82.7947 300° West 368 423 28,100  Level Atlanta Center
Mon 07:25:22 PM 35.5314 -82.8803 322° Northwest 373 429 29,400 1,033 Climbing Atlanta Center
Mon 07:27:00 PM 35.6906 -82.9923 299° West  Level Estimated
Mon 07:27:22 PM 35.6933 -83.0467 299° West 379 436 31,200  Level Atlanta Center
Mon 07:29:22 PM 35.8594 -83.2111 321° Northwest 384 442 33,400 933 Climbing Atlanta Center
Mon 07:30:22 PM 35.9350 -83.2900 320° Northwest 384 442 34,000 300 Climbing Atlanta Center
Mon 07:31:22 PM 36.0336 -83.3892 321° Northwest 401 461 34,000  Level Atlanta Center
Mon 07:32:22 PM 36.1175 -83.4758 320° Northwest 420 483 34,000  Level Atlanta Center
Mon 07:33:22 PM 36.2139 -83.5756 320° Northwest 445 512 34,000  Level Atlanta Center
Mon 07:34:53 PM 36.3769 -83.7397 321° Northwest 469 540 34,000  Level Indianapolis Center
Mon 07:35:55 PM 36.4803 -83.8467 320° Northwest 480 552 34,000  Level Indianapolis Center
Mon 07:36:56 PM 36.5967 -83.9322 329° Northwest 465 535 34,000  Level Indianapolis Center
Mon 07:37:58 PM 36.7200 -83.9836 342° North 462 532 34,000  Level Indianapolis Center
Mon 07:39:00 PM 36.8428 -84.0361 341° North 464 534 34,000  Level Indianapolis Center
Mon 07:40:01 PM 36.9625 -84.0869 341° North 457 526 34,000  Level Indianapolis Center
Mon 07:41:03 PM 37.0828 -84.1389 341° North 455 524 34,000  Level Indianapolis Center
Mon 07:42:04 PM 37.2050 -84.1914 341° North 458 527 34,000  Level Indianapolis Center
Mon 07:43:06 PM 37.3489 -84.2544 341° North 467 537 34,000  Level Indianapolis Center
Mon 07:44:08 PM 37.4733 -84.3086 341° North 472 543 34,000  Level Indianapolis Center
Mon 07:45:09 PM 37.5997 -84.3617 342° North 475 547 34,000  Level Indianapolis Center
Mon 07:46:11 PM 37.7211 -84.4131 341° North 458 527 34,000  Level Indianapolis Center
Mon 07:47:12 PM 37.8381 -84.4686 339° North 451 519 34,000  Level Indianapolis Center
Mon 07:48:14 PM 37.9561 -84.5183 342° North 447 514 34,000  Level Indianapolis Center
Mon 07:49:15 PM 38.0739 -84.5717 340° North 448 516 34,000  Level Indianapolis Center
Mon 07:50:17 PM 38.2192 -84.6347 341° North 469 540 34,000  Level Indianapolis Center
Mon 07:51:18 PM 38.3436 -84.6886 341° North 472 543 34,000  Level Indianapolis Center
Mon 07:52:20 PM 38.4694 -84.7453 341° North 477 549 34,000 -49 Level Indianapolis Center
Mon 07:54:00 PM 38.6492 -84.8051 340° North  Level FlightAware Approximate
Mon 07:55:25 PM 38.8514 -84.9183 340° North 476 548 33,800  Level Indianapolis Center
Mon 07:56:26 PM 38.9719 -84.9731 341° North 465 535 32,800 -878 Descending Indianapolis Center
Mon 07:57:28 PM 39.0892 -85.0253 341° North 452 520 32,000 -829 Descending Indianapolis Center
Mon 07:58:29 PM 39.2081 -85.0797 340° North 454 522 31,100 -976 Descending Indianapolis Center
Mon 07:59:31 PM 39.3494 -85.1450 340° North 453 521 30,000 -927 Descending Indianapolis Center
Mon 08:00:32 PM 39.4667 -85.1986 341° North 450 518 29,200 -829 Descending Indianapolis Center
Mon 08:01:34 PM 39.5847 -85.2536 340° North 452 520 28,300 -585 Descending Indianapolis Center
Mon 08:02:35 PM 39.7028 -85.3075 341° North 453 521 28,000 -146 Descending Indianapolis Center
Mon 08:03:37 PM 39.8206 -85.3619 340° North 452 520 28,000  Level Indianapolis Center
Mon 08:04:38 PM 39.9367 -85.4169 340° North 450 518 28,000 -195 Level Indianapolis Center
Mon 08:05:40 PM 40.0536 -85.4717 340° North 450 518 27,600 -976 Descending Indianapolis Center
Mon 08:06:41 PM 40.1967 -85.5383 340° North 456 525 26,000 -1,463 Descending Indianapolis Center
Mon 08:07:02 PM 40.2197 -85.5478 343° North 456 525 25,600 -1,446 Descending Chicago Center
Mon 08:08:04 PM 40.3594 -85.6131 340° North 446 513 24,000 -695 Descending Chicago Center
Mon 08:09:46 PM 40.5247 -85.7469 328° Northwest 453 521 23,700 -405 Descending Indianapolis Center
Mon 08:10:47 PM 40.6008 -85.8789 307° West 456 525 22,900 -786 Descending Indianapolis Center
Mon 08:11:10 PM 40.6322 -85.9281 310° West 455 524 22,600 -635 Descending Chicago Center
Mon 08:12:12 PM 40.7078 -86.0581 308° West 450 518 22,000 -290 Descending Chicago Center
Mon 08:13:14 PM 40.7839 -86.1878 308° West 449 517 22,000  Level Chicago Center
Mon 08:14:16 PM 40.8758 -86.3444 308° West 447 514 22,000  Level Chicago Center
Mon 08:15:18 PM 40.9553 -86.4686 310° West 444 511 22,000  Level Chicago Center
Mon 08:16:19 PM 41.0325 -86.5928 310° West 438 504 22,000  Level Chicago Center
Mon 08:17:21 PM 41.1175 -86.7300 309° West 442 509 22,000 -919 Level Chicago Center
Mon 08:18:23 PM 41.1944 -86.8522 310° West 435 501 20,100 -1,984 Descending Chicago Center
Mon 08:19:25 PM 41.2664 -86.9714 309° West 419 482 17,900 -2,129 Descending Chicago Center
Mon 08:20:27 PM 41.3361 -87.0856 309° West 404 465 15,700 -2,308 Descending Chicago Center
Mon 08:21:09 PM 41.3833 -87.1667 308° West 392 451 13,900 -1,963 Descending Chicago TRACON
Mon 08:23:09 PM 41.5167 -87.3833 309° West 369 425 10,400 -1,625 Descending Chicago TRACON
Mon 08:23:33 PM 41.5522 -87.4114 329° Northwest 360 414 10,000 -279 Descending Chicago Center
Mon 08:24:35 PM 41.6269 -87.4953 320° Northwest 355 409 10,000  Level Chicago Center
Mon 08:25:38 PM 41.6997 -87.5778 320° Northwest 351 404 10,000 -1,052 Level Chicago Center
Mon 08:27:09 PM 41.8000 -87.6833 322° Northwest 279 321 7,300 -1,152 Descending Chicago TRACON
Mon 08:28:09 PM 41.8167 -87.7833 283° West 274 315 7,100 -530 Descending Chicago TRACON
Mon 08:30:10 PM 41.8000 -87.9333 262° West 193 222 5,700 -1,005 Descending Chicago TRACON
Mon 08:31:50 PM 41.8606 -87.9769 332° Northwest 187 215 3,400 -1,350 Descending Chicago Center
Mon 08:32:10 PM 41.8833 -87.9667 19° North 168 193 3,000 -968 Descending Chicago TRACON
Mon 08:33:54 PM 41.9264 -87.9314 31° Northeast 140 161 1,400 -900 Descending Chicago Center
Mon 08:34:10 PM 41.9333 -87.9167 58° Northeast 127 146 1,200 -750 Descending Chicago TRACON
Mon 08:36:00 PM 41.9667 -87.9000 312° West  Level FlightAware Approximate
Mon 08:43:00 PM 41.9817 -87.9067 312° West  Level Estimated
Mon 08:44:00 PM 41.9817 -87.9067 312° West  Level Estimated
Mon 08:45:00 PM 41.9817 -87.9067 312° West  Level Estimated
Mon 08:46:00 PM 41.9817 -87.9067 312° West  Level Estimated
Mon 08:47:00 PM 41.9817 -87.9067 312° West  Level Estimated
Mon 08:48:00 PM 41.9817 -87.9067 312° West  Level Estimated
Mon 08:49:00 PM 41.9817 -87.9067 312° West  Level Estimated

Login

Don't have an account? Register now (free) for customized features, flight alerts, and more!